createdAt,value
2016-02-17T00:00:54.842Z,63.98
2016-02-17T00:01:54.860Z,64.27
2016-02-17T00:02:54.879Z,63.98
2016-02-17T00:03:54.881Z,63.79
2016-02-17T00:04:54.900Z,63.7
2016-02-17T00:05:54.919Z,63.23
2016-02-17T00:06:54.936Z,63.89
2016-02-17T00:07:54.955Z,63.42
2016-02-17T00:08:54.973Z,63.48
2016-02-17T00:09:54.976Z,63.23
2016-02-17T00:10:55.009Z,63.29
2016-02-17T00:11:55.013Z,63.29
2016-02-17T00:12:55.031Z,63.29
2016-02-17T00:13:55.049Z,63.29
2016-02-17T00:14:54.896Z,63.57
2016-02-17T00:15:55.070Z,63.76
2016-02-17T00:16:55.088Z,63.76
2016-02-17T00:17:55.106Z,63.86
2016-02-17T00:18:55.125Z,63.95
2016-02-17T00:19:55.143Z,64.14
2016-02-17T00:20:55.145Z,63.98
2016-02-17T00:21:55.164Z,63.95
2016-02-17T00:22:55.183Z,63.76
2016-02-17T00:23:55.200Z,64.33
2016-02-17T00:24:55.219Z,64.52
2016-02-17T00:25:55.222Z,64.14
2016-02-17T00:26:55.240Z,64.33
2016-02-17T00:27:55.259Z,64.24
2016-02-17T00:28:55.277Z,64.17
2016-02-17T00:29:55.295Z,64.33
2016-02-17T00:30:55.302Z,64.43
2016-02-17T00:31:55.321Z,64.05
2016-02-17T00:32:55.339Z,64.46
2016-02-17T00:33:55.358Z,64.43
2016-02-17T00:34:55.376Z,64.33
2016-02-17T00:35:55.379Z,64.43
2016-02-17T00:36:55.397Z,64.14
2016-02-17T00:37:55.415Z,64.33
2016-02-17T00:38:55.434Z,64.14
2016-02-17T00:39:55.451Z,64.62
2016-02-17T00:40:55.455Z,64.33
2016-02-17T00:41:55.473Z,64.24
2016-02-17T00:42:55.491Z,63.76
2016-02-17T00:43:55.525Z,64.05
2016-02-17T00:44:55.512Z,63.86
2016-02-17T00:45:55.546Z,64.24
2016-02-17T00:46:55.565Z,63.86
2016-02-17T00:47:55.583Z,64.14
2016-02-17T00:48:55.586Z,64.05
2016-02-17T00:49:55.604Z,64.05
2016-02-17T00:50:55.622Z,63.95
2016-02-17T00:51:55.625Z,63.67
2016-02-17T00:52:55.642Z,64.43
2016-02-17T00:53:55.662Z,64.52
2016-02-17T00:54:55.680Z,64.52
2016-02-17T00:55:55.714Z,64.43
2016-02-17T00:56:55.716Z,64.24
2016-02-17T00:57:55.719Z,64.62
2016-02-17T00:58:55.738Z,64.33
2016-02-17T00:59:55.755Z,63.76
2016-02-17T01:00:55.774Z,63.76
2016-02-17T01:01:55.792Z,64.14
2016-02-17T01:02:55.811Z,64.14
2016-02-17T01:03:55.829Z,64.14
2016-02-17T01:04:55.832Z,63.86
2016-02-17T01:05:55.849Z,63.95
2016-02-17T01:06:55.869Z,63.29
2016-02-17T01:07:55.887Z,63.57
2016-02-17T01:08:55.890Z,62.91
2016-02-17T01:09:55.907Z,63.1
2016-02-17T01:10:55.926Z,63.76
2016-02-17T01:11:55.944Z,63.01
2016-02-17T01:12:55.962Z,62.91
2016-02-17T01:13:55.981Z,63.48
2016-02-17T01:14:55.999Z,63.39
2016-02-17T01:15:56.001Z,63.39
2016-02-17T01:16:56.020Z,63.2
2016-02-17T01:17:56.039Z,63.2
2016-02-17T01:18:56.057Z,63.29
2016-02-17T01:19:56.059Z,63.2
2016-02-17T01:20:56.078Z,63.2
2016-02-17T01:21:56.111Z,63.29
2016-02-17T01:22:56.115Z,63.39
2016-02-17T01:23:56.133Z,63.01
2016-02-17T01:24:56.151Z,63.48
2016-02-17T01:25:56.170Z,63.1
2016-02-17T01:26:56.188Z,63.57
2016-02-17T01:27:56.191Z,63.67
2016-02-17T01:28:56.209Z,63.67
2016-02-17T01:29:56.227Z,63.57
2016-02-17T01:30:56.245Z,63.29
2016-02-17T01:31:56.248Z,63.57
2016-02-17T01:32:56.266Z,63.2
2016-02-17T01:33:56.285Z,63.2
2016-02-17T01:34:56.287Z,63.39
2016-02-17T01:35:56.306Z,63.2
2016-02-17T01:36:56.340Z,62.91
2016-02-17T01:37:56.343Z,63.01
2016-02-17T01:38:56.360Z,63.1
2016-02-17T01:39:56.379Z,63.1
2016-02-17T01:40:56.382Z,62.82
2016-02-17T01:41:56.399Z,63.1
2016-02-17T01:42:56.418Z,63.1
2016-02-17T01:43:56.437Z,63.01
2016-02-17T01:44:56.455Z,63.2
2016-02-17T01:45:56.457Z,63.39
2016-02-17T01:46:56.492Z,62.82
2016-02-17T01:47:56.495Z,63.1
2016-02-17T01:48:56.512Z,62.91
2016-02-17T01:49:56.531Z,63.1
2016-02-17T01:50:56.548Z,63.1
2016-02-17T01:51:56.567Z,63.76
2016-02-17T01:52:56.570Z,63.39
2016-02-17T01:53:56.589Z,63.39
2016-02-17T01:54:56.606Z,63.01
2016-02-17T01:55:56.453Z,62.62
2016-02-17T01:56:56.644Z,62.43
2016-02-17T01:57:56.647Z,62.53
2016-02-17T01:58:56.664Z,62.72
2016-02-17T01:59:56.683Z,62.53
2016-02-17T02:00:56.701Z,62.43
2016-02-17T02:01:56.719Z,62.82
2016-02-17T02:02:56.722Z,63.01
2016-02-17T02:03:56.740Z,62.82
2016-02-17T02:04:56.758Z,62.82
2016-02-17T02:05:56.777Z,63.1
2016-02-17T02:06:56.795Z,63.39
2016-02-17T02:07:56.799Z,63.48
2016-02-17T02:08:56.816Z,63.39
2016-02-17T02:09:56.835Z,63.2
2016-02-17T02:10:56.853Z,63.29
2016-02-17T02:11:56.871Z,63.39
2016-02-17T02:12:56.890Z,63.57
2016-02-17T02:13:56.893Z,63.39
2016-02-17T02:14:56.910Z,63.2
2016-02-17T02:15:56.913Z,63.29
2016-02-17T02:16:56.948Z,63.29
2016-02-17T02:17:56.951Z,63.01
2016-02-17T02:18:56.968Z,63.29
2016-02-17T02:19:56.986Z,63.67
2016-02-17T02:20:57.004Z,63.48
2016-02-17T02:21:57.007Z,63.29
2016-02-17T02:22:57.026Z,63.57
2016-02-17T02:23:57.044Z,63.39
2016-02-17T02:24:57.062Z,63.67
2016-02-17T02:25:57.082Z,63.39
2016-02-17T02:26:57.085Z,63.48
2016-02-17T02:27:57.103Z,63.29
2016-02-17T02:28:57.121Z,63.29
2016-02-17T02:29:57.140Z,63.29
2016-02-17T02:30:57.142Z,63.57
2016-02-17T02:31:57.160Z,63.48
2016-02-17T02:32:57.178Z,63.76
2016-02-17T02:33:57.198Z,63.86
2016-02-17T02:34:57.215Z,63.67
2016-02-17T02:35:57.250Z,63.86
2016-02-17T02:36:57.236Z,63.57
2016-02-17T02:37:57.255Z,63.86
2016-02-17T02:38:57.273Z,63.86
2016-02-17T02:39:57.291Z,63.86
2016-02-17T02:40:57.309Z,63.67
2016-02-17T02:41:57.312Z,63.86
2016-02-17T02:42:57.331Z,63.76
2016-02-17T02:43:57.349Z,63.86
2016-02-17T02:44:57.367Z,63.95
2016-02-17T02:45:57.386Z,63.48
2016-02-17T02:46:57.389Z,63.86
2016-02-17T02:47:57.407Z,63.76
2016-02-17T02:48:57.441Z,63.57
2016-02-17T02:49:57.443Z,63.73
2016-02-17T02:50:57.461Z,63.73
2016-02-17T02:51:57.464Z,63.86
2016-02-17T02:52:57.482Z,63.82
2016-02-17T02:53:57.501Z,63.64
2016-02-17T02:54:57.519Z,63.57
2016-02-17T02:55:57.538Z,63.73
2016-02-17T02:56:57.541Z,63.73
2016-02-17T02:57:57.559Z,63.64
2016-02-17T02:58:57.577Z,63.64
2016-02-17T02:59:57.595Z,63.95
2016-02-17T03:00:57.598Z,63.67
2016-02-17T03:01:57.662Z,63.67
2016-02-17T03:02:57.635Z,63.92
2016-02-17T03:03:57.637Z,63.54
2016-02-17T03:04:57.656Z,63.73
2016-02-17T03:05:57.689Z,63.73
2016-02-17T03:06:57.692Z,63.73
2016-02-17T03:07:57.726Z,63.54
2016-02-17T03:08:57.713Z,63.73
2016-02-17T03:09:57.731Z,63.92
2016-02-17T03:10:57.750Z,63.73
2016-02-17T03:11:57.768Z,63.73
2016-02-17T03:12:57.786Z,63.82
2016-02-17T03:13:57.789Z,63.92
2016-02-17T03:14:57.807Z,63.54
2016-02-17T03:15:57.826Z,63.54
2016-02-17T03:16:57.860Z,63.73
2016-02-17T03:17:57.863Z,63.17
2016-02-17T03:18:57.880Z,63.45
2016-02-17T03:19:57.883Z,63.54
2016-02-17T03:20:57.902Z,63.45
2016-02-17T03:21:57.919Z,63.92
2016-02-17T03:22:57.938Z,63.92
2016-02-17T03:23:57.941Z,63.54
2016-02-17T03:24:57.975Z,63.82
2016-02-17T03:25:57.977Z,63.64
2016-02-17T03:26:57.996Z,63.73
2016-02-17T03:27:57.999Z,63.92
2016-02-17T03:28:58.032Z,63.73
2016-02-17T03:29:58.035Z,63.64
2016-02-17T03:30:58.053Z,63.82
2016-02-17T03:31:58.088Z,63.82
2016-02-17T03:32:58.090Z,63.82
2016-02-17T03:33:58.093Z,63.54
2016-02-17T03:34:58.127Z,64.2
2016-02-17T03:35:58.129Z,63.92
2016-02-17T03:36:58.148Z,63.82
2016-02-17T03:37:58.150Z,63.92
2016-02-17T03:38:58.184Z,64.11
2016-02-17T03:39:58.187Z,64.11
2016-02-17T03:40:58.206Z,63.64
2016-02-17T03:41:58.208Z,64.11
2016-02-17T03:42:58.226Z,63.92
2016-02-17T03:43:58.244Z,63.92
2016-02-17T03:44:58.247Z,63.82
2016-02-17T03:45:58.281Z,64.3
2016-02-17T03:46:58.316Z,63.82
2016-02-17T03:47:58.318Z,63.92
2016-02-17T03:48:58.321Z,63.82
2016-02-17T03:49:58.339Z,63.92
2016-02-17T03:50:58.341Z,63.64
2016-02-17T03:51:58.360Z,64.01
2016-02-17T03:52:58.378Z,64.11
2016-02-17T03:53:58.397Z,64.11
2016-02-17T03:54:58.415Z,63.73
2016-02-17T03:55:58.418Z,63.82
2016-02-17T03:56:58.436Z,63.64
2016-02-17T03:57:58.470Z,64.59
2016-02-17T03:58:58.457Z,64.3
2016-02-17T03:59:58.475Z,64.4
2016-02-17T04:00:58.494Z,64.49
2016-02-17T04:01:58.512Z,64.3
2016-02-17T04:02:58.530Z,64.4
2016-02-17T04:03:58.533Z,64.49
2016-02-17T04:04:58.551Z,64.2
2016-02-17T04:05:58.585Z,64.3
2016-02-17T04:06:58.587Z,64.2
2016-02-17T04:07:58.606Z,64.2
2016-02-17T04:08:58.609Z,64.4
2016-02-17T04:09:58.628Z,64.3
2016-02-17T04:10:58.645Z,64.11
2016-02-17T04:11:58.664Z,64.3
2016-02-17T04:12:58.666Z,64.11
2016-02-17T04:13:58.684Z,64.49
2016-02-17T04:14:58.703Z,64.3
2016-02-17T04:15:58.722Z,64.2
2016-02-17T04:16:58.739Z,64.3
2016-02-17T04:17:58.586Z,64.4
2016-02-17T04:18:58.761Z,64.49
2016-02-17T04:19:58.779Z,64.49
2016-02-17T04:20:58.797Z,64.49
2016-02-17T04:21:58.800Z,64.4
2016-02-17T04:22:58.819Z,64.3
2016-02-17T04:23:58.852Z,63.92
2016-02-17T04:24:58.855Z,64.3
2016-02-17T04:25:58.874Z,63.92
2016-02-17T04:26:58.876Z,64.11
2016-02-17T04:27:58.910Z,64.3
2016-02-17T04:28:58.912Z,63.82
2016-02-17T04:29:58.931Z,63.82
2016-02-17T04:30:58.934Z,63.92
2016-02-17T04:31:58.952Z,63.82
2016-02-17T04:32:58.955Z,64.2
2016-02-17T04:33:58.973Z,63.92
2016-02-17T04:34:58.991Z,63.73
2016-02-17T04:35:59.009Z,63.35
2016-02-17T04:36:59.028Z,63.54
2016-02-17T04:37:59.046Z,63.82
2016-02-17T04:38:59.065Z,63.64
2016-02-17T04:39:59.067Z,63.92
2016-02-17T04:40:59.086Z,63.82
2016-02-17T04:41:59.103Z,63.92
2016-02-17T04:42:59.122Z,63.92
2016-02-17T04:43:59.125Z,63.92
2016-02-17T04:44:59.174Z,63.92
2016-02-17T04:45:59.162Z,63.79
2016-02-17T04:46:59.180Z,63.6
2016-02-17T04:47:59.183Z,63.7
2016-02-17T04:48:59.201Z,63.73
2016-02-17T04:49:59.219Z,63.79
2016-02-17T04:50:59.238Z,63.51
2016-02-17T04:51:59.241Z,63.32
2016-02-17T04:52:59.258Z,62.97
2016-02-17T04:53:59.277Z,63.04
2016-02-17T04:54:59.295Z,63.7
2016-02-17T04:55:59.297Z,63.7
2016-02-17T04:56:59.316Z,63.6
2016-02-17T04:57:59.334Z,63.79
2016-02-17T04:58:59.352Z,63.98
2016-02-17T04:59:59.355Z,63.7
2016-02-17T05:00:59.374Z,63.7
2016-02-17T05:01:59.393Z,63.23
2016-02-17T05:02:59.410Z,63.42
2016-02-17T05:03:59.429Z,63.42
2016-02-17T05:04:59.431Z,63.23
2016-02-17T05:05:59.449Z,63.13
2016-02-17T05:06:59.468Z,63.23
2016-02-17T05:07:59.471Z,63.04
2016-02-17T05:08:59.505Z,63.6
2016-02-17T05:09:59.492Z,63.7
2016-02-17T05:10:59.526Z,62.94
2016-02-17T05:11:59.528Z,63.42
2016-02-17T05:12:59.547Z,63.42
2016-02-17T05:13:59.564Z,63.13
2016-02-17T05:14:59.584Z,62.85
2016-02-17T05:15:59.586Z,62.94
2016-02-17T05:16:59.620Z,63.42
2016-02-17T05:17:59.623Z,63.32
2016-02-17T05:18:59.641Z,63.6
2016-02-17T05:19:59.644Z,62.94
2016-02-17T05:20:59.646Z,63.6
2016-02-17T05:21:59.680Z,63.13
2016-02-17T05:22:59.699Z,63.42
2016-02-17T05:23:59.702Z,63.23
2016-02-17T05:24:59.720Z,63.79
2016-02-17T05:25:59.738Z,63.04
2016-02-17T05:26:59.741Z,63.32
2016-02-17T05:27:59.758Z,63.23
2016-02-17T05:28:59.777Z,63.42
2016-02-17T05:29:59.796Z,63.42
2016-02-17T05:30:59.799Z,63.42
2016-02-17T05:31:59.816Z,63.79
2016-02-17T05:32:59.835Z,63.6
2016-02-17T05:33:59.853Z,63.79
2016-02-17T05:34:59.856Z,63.51
2016-02-17T05:35:59.874Z,63.42
2016-02-17T05:36:59.893Z,63.79
2016-02-17T05:37:59.911Z,63.7
2016-02-17T05:38:59.913Z,63.98
2016-02-17T05:39:59.932Z,64.17
2016-02-17T05:40:59.950Z,64.08
2016-02-17T05:41:59.953Z,63.89
2016-02-17T05:42:59.970Z,63.51
2016-02-17T05:43:59.990Z,63.89
2016-02-17T05:45:00.008Z,64.17
2016-02-17T05:46:00.026Z,63.89
2016-02-17T05:47:00.029Z,64.08
2016-02-17T05:48:00.062Z,64.17
2016-02-17T05:49:00.065Z,64.08
2016-02-17T05:50:00.067Z,64.08
2016-02-17T05:51:00.086Z,63.6
2016-02-17T05:52:00.105Z,64.27
2016-02-17T05:53:00.123Z,64.17
2016-02-17T05:54:00.126Z,64.27
2016-02-17T05:55:00.160Z,63.89
2016-02-17T05:56:00.163Z,63.98
2016-02-17T05:57:00.180Z,64.17
2016-02-17T05:58:00.183Z,64.17
2016-02-17T05:59:00.216Z,64.27
2016-02-17T06:00:00.220Z,63.98
2016-02-17T06:01:00.239Z,64.17
2016-02-17T06:02:00.241Z,64.17
2016-02-17T06:03:00.274Z,64.08
2016-02-17T06:04:00.277Z,63.98
2016-02-17T06:05:00.280Z,64.46
2016-02-17T06:06:00.298Z,64.74
2016-02-17T06:07:00.318Z,64.46
2016-02-17T06:08:00.320Z,64.36
2016-02-17T06:09:00.354Z,64.93
2016-02-17T06:10:00.356Z,65.12
2016-02-17T06:11:00.374Z,64.08
2016-02-17T06:12:00.393Z,64.65
2016-02-17T06:13:00.395Z,64.36
2016-02-17T06:14:00.430Z,64.36
2016-02-17T06:15:00.432Z,64.27
2016-02-17T06:16:00.450Z,64.46
2016-02-17T06:17:00.453Z,64.27
2016-02-17T06:18:00.472Z,64.17
2016-02-17T06:19:00.506Z,64.36
2016-02-17T06:20:00.509Z,63.98
2016-02-17T06:21:00.526Z,64.17
2016-02-17T06:22:00.528Z,64.27
2016-02-17T06:23:00.392Z,64.17
2016-02-17T06:24:00.551Z,64.36
2016-02-17T06:25:00.569Z,64.27
2016-02-17T06:26:00.587Z,64.46
2016-02-17T06:27:00.605Z,64.36
2016-02-17T06:28:00.608Z,63.89
2016-02-17T06:29:00.626Z,64.36
2016-02-17T06:30:00.644Z,63.89
2016-02-17T06:31:00.663Z,64.17
2016-02-17T06:32:00.666Z,63.7
2016-02-17T06:33:00.684Z,63.79
2016-02-17T06:34:00.702Z,63.6
2016-02-17T06:35:00.705Z,64.36
2016-02-17T06:36:00.723Z,64.17
2016-02-17T06:37:00.741Z,63.89
2016-02-17T06:38:00.759Z,63.79
2016-02-17T06:39:00.779Z,63.89
2016-02-17T06:40:00.782Z,64.36
2016-02-17T06:41:00.799Z,64.08
2016-02-17T06:42:00.818Z,63.7
2016-02-17T06:43:00.835Z,64.46
2016-02-17T06:44:00.838Z,64.17
2016-02-17T06:45:00.856Z,64.27
2016-02-17T06:46:00.859Z,64.36
2016-02-17T06:47:00.879Z,64.27
2016-02-17T06:48:00.896Z,64.27
2016-02-17T06:49:00.899Z,64.08
2016-02-17T06:50:00.948Z,64.08
2016-02-17T06:51:00.936Z,64.08
2016-02-17T06:52:00.970Z,64.46
2016-02-17T06:53:00.987Z,64.17
2016-02-17T06:54:00.989Z,63.7
2016-02-17T06:55:00.993Z,63.89
2016-02-17T06:56:01.012Z,63.79
2016-02-17T06:57:01.014Z,64.17
2016-02-17T06:58:01.032Z,64.08
2016-02-17T06:59:01.050Z,64.46
2016-02-17T07:00:01.069Z,64.46
2016-02-17T07:01:01.087Z,64.08
2016-02-17T07:02:01.091Z,64.17
2016-02-17T07:03:01.109Z,64.36
2016-02-17T07:04:01.141Z,64.84
2016-02-17T07:05:01.129Z,65.12
2016-02-17T07:06:01.147Z,65.12
2016-02-17T07:07:01.166Z,64.36
2016-02-17T07:08:01.185Z,64.36
2016-02-17T07:09:01.188Z,64.65
2016-02-17T07:10:01.205Z,64.27
2016-02-17T07:11:01.208Z,64.27
2016-02-17T07:12:01.243Z,64.74
2016-02-17T07:13:01.104Z,65.12
2016-02-17T07:14:01.279Z,64.93
2016-02-17T07:15:01.265Z,64.55
2016-02-17T07:16:01.300Z,64.93
2016-02-17T07:17:01.302Z,64.36
2016-02-17T07:18:01.320Z,65.03
2016-02-17T07:19:01.323Z,64.65
2016-02-17T07:20:01.342Z,64.74
2016-02-17T07:21:01.359Z,64.84
2016-02-17T07:22:01.379Z,64.65
2016-02-17T07:23:01.396Z,64.93
2016-02-17T07:24:01.400Z,64.93
2016-02-17T07:25:01.417Z,64.65
2016-02-17T07:26:01.420Z,64.65
2016-02-17T07:27:01.439Z,64.93
2016-02-17T07:28:01.456Z,65.22
2016-02-17T07:29:01.459Z,64.84
2016-02-17T07:30:01.509Z,64.27
2016-02-17T07:31:01.511Z,64.55
2016-02-17T07:32:01.515Z,64.36
2016-02-17T07:33:01.517Z,63.89
2016-02-17T07:34:01.536Z,64.08
2016-02-17T07:35:01.569Z,64.46
2016-02-17T07:36:01.557Z,64.27
2016-02-17T07:37:01.575Z,64.46
2016-02-17T07:38:01.608Z,64.08
2016-02-17T07:39:01.611Z,64.46
2016-02-17T07:40:01.614Z,64.74
2016-02-17T07:41:01.633Z,65.03
2016-02-17T07:42:01.651Z,65.12
2016-02-17T07:43:01.669Z,65.12
2016-02-17T07:44:01.688Z,64.65
2016-02-17T07:45:01.690Z,64.93
2016-02-17T07:46:01.708Z,64.55
2016-02-17T07:47:01.727Z,64.93
2016-02-17T07:48:01.760Z,64.93
2016-02-17T07:49:01.745Z,64.74
2016-02-17T07:50:01.761Z,64.74
2016-02-17T07:51:01.779Z,64.93
2016-02-17T07:52:01.750Z,64.93
2016-02-17T07:53:01.737Z,64.84
2016-02-17T07:54:01.740Z,64.84
2016-02-17T07:55:01.752Z,65.22
2016-02-17T07:56:01.750Z,64.93
2016-02-17T07:57:01.763Z,65.31
2016-02-17T07:58:01.774Z,65.31
2016-02-17T07:59:01.772Z,65.5
2016-02-17T08:00:01.788Z,65.34
2016-02-17T08:01:01.648Z,64.84
2016-02-17T08:02:01.838Z,64.68
2016-02-17T08:03:01.853Z,64.68
2016-02-17T08:04:01.840Z,64.59
2016-02-17T08:05:01.919Z,64.68
2016-02-17T08:06:01.874Z,64.78
2016-02-17T08:07:01.876Z,64.78
2016-02-17T08:08:01.894Z,64.78
2016-02-17T08:09:01.927Z,64.78
2016-02-17T08:10:01.913Z,64.49
2016-02-17T08:11:01.931Z,64.97
2016-02-17T08:12:01.949Z,64.3
2016-02-17T08:13:01.951Z,64.87
2016-02-17T08:14:01.969Z,64.87
2016-02-17T08:15:01.988Z,65.06
2016-02-17T08:16:02.115Z,65.25
2016-02-17T08:17:02.025Z,65.16
2016-02-17T08:18:02.043Z,64.2
2016-02-17T08:19:02.077Z,64.49
2016-02-17T08:20:02.063Z,64.59
2016-02-17T08:21:02.066Z,64.01
2016-02-17T08:22:02.100Z,64.59
2016-02-17T08:23:02.102Z,64.59
2016-02-17T08:24:02.122Z,64.11
2016-02-17T08:25:02.140Z,64.01
2016-02-17T08:26:02.190Z,64.3
2016-02-17T08:27:02.224Z,64.2
2016-02-17T08:28:02.177Z,64.3
2016-02-17T08:29:02.180Z,64.11
2016-02-17T08:30:02.198Z,63.92
2016-02-17T08:31:02.216Z,64.3
2016-02-17T08:32:02.219Z,64.01
2016-02-17T08:33:02.268Z,63.82
2016-02-17T08:34:02.786Z,63.35
2016-02-17T08:35:02.274Z,63.26
2016-02-17T08:36:02.276Z,63.64
2016-02-17T08:37:02.326Z,63.57
2016-02-17T08:38:02.312Z,63.2
2016-02-17T08:39:02.331Z,63.48
2016-02-17T08:40:02.350Z,63.67
2016-02-17T08:41:02.368Z,62.91
2016-02-17T08:42:02.370Z,63.1
2016-02-17T08:43:02.389Z,62.82
2016-02-17T08:44:02.407Z,62.82
2016-02-17T08:45:02.426Z,62.91
2016-02-17T08:46:02.429Z,62.72
2016-02-17T08:47:02.447Z,62.43
2016-02-17T08:48:02.465Z,62.34
2016-02-17T08:49:02.468Z,62.34
2016-02-17T08:50:02.502Z,62.34
2016-02-17T08:51:02.520Z,62.05
2016-02-17T08:52:02.522Z,61.96
2016-02-17T08:53:02.603Z,61.39
2016-02-17T08:54:02.543Z,61.3
2016-02-17T08:55:02.561Z,61.3
2016-02-17T08:56:02.580Z,61.49
2016-02-17T08:57:02.583Z,61.3
2016-02-17T08:58:02.602Z,61.3
2016-02-17T08:59:02.619Z,61.2
2016-02-17T09:00:02.638Z,61.11
2016-02-17T09:01:02.656Z,60.95
2016-02-17T09:02:02.659Z,61.14
2016-02-17T09:03:02.677Z,60.76
2016-02-17T09:04:02.696Z,60.28
2016-02-17T09:05:02.714Z,60.76
2016-02-17T09:06:02.732Z,60
2016-02-17T09:07:02.735Z,60.66
2016-02-17T09:08:02.753Z,60.28
2016-02-17T09:09:02.771Z,60
2016-02-17T09:10:02.790Z,60.57
2016-02-17T09:11:02.792Z,60.38
2016-02-17T09:12:02.811Z,59.81
2016-02-17T09:13:02.828Z,59.81
2016-02-17T09:14:02.832Z,59.62
2016-02-17T09:15:02.866Z,60.19
2016-02-17T09:16:02.884Z,59.52
2016-02-17T09:17:02.887Z,59.71
2016-02-17T09:18:02.905Z,59.24
2016-02-17T09:19:02.923Z,59.24
2016-02-17T09:20:03.035Z,59.52
2016-02-17T09:21:02.944Z,59.62
2016-02-17T09:22:02.963Z,59.62
2016-02-17T09:23:02.996Z,59.62
2016-02-17T09:24:02.984Z,59.43
2016-02-17T09:25:03.127Z,59.81
2016-02-17T09:26:03.020Z,59.81
2016-02-17T09:27:03.038Z,59.81
2016-02-17T09:28:03.041Z,60
2016-02-17T09:29:03.074Z,59.81
2016-02-17T09:30:03.078Z,59.81
2016-02-17T09:31:03.096Z,60.1
2016-02-17T09:32:03.146Z,58.95
2016-02-17T09:33:03.132Z,58.58
2016-02-17T09:34:03.135Z,58.58
2016-02-17T09:35:03.154Z,58.58
2016-02-17T09:36:03.187Z,58.39
2016-02-17T09:37:03.191Z,58.39
2016-02-17T09:38:03.194Z,57.24
2016-02-17T09:39:03.227Z,58
2016-02-17T09:40:03.246Z,57.43
2016-02-17T09:41:03.248Z,58
2016-02-17T09:42:03.267Z,58.1
2016-02-17T09:43:03.285Z,57.91
2016-02-17T09:44:03.287Z,57.81
2016-02-17T09:45:03.306Z,57.91
2016-02-17T09:46:03.339Z,57.91
2016-02-17T09:47:03.342Z,57.81
2016-02-17T09:48:03.361Z,57.81
2016-02-17T09:49:03.364Z,57.81
2016-02-17T09:50:03.397Z,57.34
2016-02-17T09:51:03.416Z,57.06
2016-02-17T09:52:03.419Z,57.06
2016-02-17T09:53:03.422Z,57.15
2016-02-17T09:54:03.455Z,56.58
2016-02-17T09:55:03.458Z,56.96
2016-02-17T09:56:03.475Z,56.96
2016-02-17T09:57:03.494Z,56.77
2016-02-17T09:58:03.513Z,56.68
2016-02-17T09:59:03.516Z,56.96
2016-02-17T10:00:03.597Z,56.87
2016-02-17T10:01:03.552Z,57.34
2016-02-17T10:02:03.571Z,57.34
2016-02-17T10:03:03.589Z,56.87
2016-02-17T10:04:03.607Z,57.24
2016-02-17T10:05:03.609Z,56.96
2016-02-17T10:06:03.627Z,56.29
2016-02-17T10:07:03.646Z,56.49
2016-02-17T10:08:03.665Z,56.77
2016-02-17T10:09:03.667Z,56.96
2016-02-17T10:10:03.685Z,56.39
2016-02-17T10:11:03.766Z,56.49
2016-02-17T10:12:03.737Z,56.77
2016-02-17T10:13:03.740Z,56.01
2016-02-17T10:14:03.759Z,56.29
2016-02-17T10:15:03.761Z,56.1
2016-02-17T10:16:03.796Z,56.2
2016-02-17T10:17:03.798Z,56.96
2016-02-17T10:18:03.817Z,56.29
2016-02-17T10:19:03.834Z,56.29
2016-02-17T10:20:03.853Z,56.29
2016-02-17T10:21:03.872Z,56.29
2016-02-17T10:22:03.889Z,56.58
2016-02-17T10:23:03.892Z,56.68
2016-02-17T10:24:03.911Z,56.68
2016-02-17T10:25:03.913Z,56.68
2016-02-17T10:26:03.947Z,56.58
2016-02-17T10:27:03.950Z,56.68
2016-02-17T10:28:03.969Z,56.87
2016-02-17T10:29:03.986Z,56.68
2016-02-17T10:30:04.005Z,56.68
2016-02-17T10:31:04.024Z,56.2
2016-02-17T10:32:04.183Z,56.68
2016-02-17T10:33:04.044Z,56.58
2016-02-17T10:34:04.078Z,56.29
2016-02-17T10:35:04.097Z,56.2
2016-02-17T10:36:04.099Z,56.39
2016-02-17T10:37:04.118Z,56.61
2016-02-17T10:38:04.121Z,56.23
2016-02-17T10:39:04.139Z,56.49
2016-02-17T10:40:04.174Z,56.51
2016-02-17T10:41:04.176Z,55.66
2016-02-17T10:42:04.194Z,55.85
2016-02-17T10:43:04.213Z,55.37
2016-02-17T10:44:04.266Z,55.37
2016-02-17T10:45:05.631Z,56.13
2016-02-17T10:46:04.259Z,56.13
2016-02-17T10:47:04.290Z,56.13
2016-02-17T10:48:04.191Z,56.23
2016-02-17T10:49:04.303Z,56.13
2016-02-17T10:50:04.321Z,55.85
2016-02-17T10:51:04.340Z,55.47
2016-02-17T10:52:04.342Z,54.9
2016-02-17T10:53:04.361Z,55.28
2016-02-17T10:54:04.380Z,54.99
2016-02-17T10:55:04.398Z,54.99
2016-02-17T10:56:04.416Z,55.18
2016-02-17T10:57:04.429Z,55.85
2016-02-17T10:58:04.447Z,55.47
2016-02-17T10:59:04.465Z,55.09
2016-02-17T11:00:04.483Z,55.37
2016-02-17T11:01:04.502Z,55.57
2016-02-17T11:02:04.504Z,55.66
2016-02-17T11:03:04.523Z,55.85
2016-02-17T11:04:04.557Z,55.66
2016-02-17T11:05:04.560Z,55.09
2016-02-17T11:06:04.578Z,55.18
2016-02-17T11:07:04.596Z,54.9
2016-02-17T11:08:04.599Z,54.99
2016-02-17T11:09:04.617Z,54.99
2016-02-17T11:10:04.636Z,55.18
2016-02-17T11:11:04.654Z,55.18
2016-02-17T11:12:04.673Z,54.99
2016-02-17T11:13:04.690Z,54.52
2016-02-17T11:14:04.709Z,55.21
2016-02-17T11:15:04.728Z,54.71
2016-02-17T11:16:04.731Z,55.11
2016-02-17T11:17:04.765Z,55.28
2016-02-17T11:18:04.782Z,54.45
2016-02-17T11:19:04.801Z,53.95
2016-02-17T11:20:04.803Z,54.55
2016-02-17T11:21:04.837Z,53.76
2016-02-17T11:22:04.840Z,54.05
2016-02-17T11:23:04.843Z,53.78
2016-02-17T11:24:04.861Z,54.05
2016-02-17T11:25:04.895Z,53.95
2016-02-17T11:26:04.898Z,54.33
2016-02-17T11:27:04.916Z,53.85
2016-02-17T11:28:04.950Z,54.24
2016-02-17T11:29:04.953Z,54.05
2016-02-17T11:30:04.972Z,54.43
2016-02-17T11:31:04.989Z,53.76
2016-02-17T11:32:04.992Z,54.52
2016-02-17T11:33:05.011Z,54.33
2016-02-17T11:34:05.030Z,54.43
2016-02-17T11:35:05.047Z,53.85
2016-02-17T11:36:05.066Z,53.57
2016-02-17T11:37:05.083Z,53.47
2016-02-17T11:38:05.102Z,54.33
2016-02-17T11:39:05.104Z,53.85
2016-02-17T11:40:05.123Z,53.57
2016-02-17T11:41:05.141Z,54.24
2016-02-17T11:42:05.160Z,53.38
2016-02-17T11:43:05.179Z,53.85
2016-02-17T11:44:05.196Z,54.52
2016-02-17T11:45:05.215Z,54.9
2016-02-17T11:46:05.233Z,55.37
2016-02-17T11:47:05.252Z,54.61
2016-02-17T11:48:05.411Z,54.52
2016-02-17T11:49:05.288Z,55.18
2016-02-17T11:50:05.306Z,54.9
2016-02-17T11:51:05.310Z,54.9
2016-02-17T11:52:05.343Z,54.71
2016-02-17T11:53:05.346Z,54.9
2016-02-17T11:54:05.349Z,54.71
2016-02-17T11:55:05.382Z,54.71
2016-02-17T11:56:05.385Z,54.71
2016-02-17T11:57:05.420Z,54.9
2016-02-17T11:58:05.422Z,54.33
2016-02-17T11:59:05.441Z,54.33
2016-02-17T12:00:05.475Z,54.71
2016-02-17T12:01:05.477Z,54.8
2016-02-17T12:02:05.496Z,54.99
2016-02-17T12:03:05.529Z,54.9
2016-02-17T12:04:05.517Z,55.28
2016-02-17T12:05:05.539Z,55.18
2016-02-17T12:06:05.558Z,55.18
2016-02-17T12:07:05.576Z,54.9
2016-02-17T12:08:05.594Z,55.28
2016-02-17T12:09:05.597Z,54.52
2016-02-17T12:10:05.616Z,54.71
2016-02-17T12:11:05.633Z,54.61
2016-02-17T12:12:05.652Z,54.52
2016-02-17T12:13:05.671Z,54.71
2016-02-17T12:14:05.689Z,55.28
2016-02-17T12:15:05.723Z,54.61
2016-02-17T12:16:05.726Z,54.49
2016-02-17T12:17:05.728Z,55.09
2016-02-17T12:18:05.763Z,54.8
2016-02-17T12:19:05.765Z,55.09
2016-02-17T12:20:05.782Z,55.28
2016-02-17T12:21:05.849Z,54.9
2016-02-17T12:22:05.820Z,54.9
2016-02-17T12:23:05.838Z,55.37
2016-02-17T12:24:05.856Z,55.37
2016-02-17T12:25:05.859Z,55.28
2016-02-17T12:26:05.893Z,54.71
2016-02-17T12:27:05.896Z,54.71
2016-02-17T12:28:05.914Z,54.71
2016-02-17T12:29:05.931Z,55.09
2016-02-17T12:30:05.967Z,54.8
2016-02-17T12:31:05.969Z,55.09
2016-02-17T12:32:05.987Z,54.61
2016-02-17T12:33:06.006Z,55.18
2016-02-17T12:34:06.055Z,54.71
2016-02-17T12:35:06.027Z,54.61
2016-02-17T12:36:06.045Z,54.61
2016-02-17T12:37:06.078Z,54.24
2016-02-17T12:38:06.081Z,53.85
2016-02-17T12:39:06.100Z,54.43
2016-02-17T12:40:06.119Z,54.05
2016-02-17T12:41:06.121Z,53.95
2016-02-17T12:42:06.139Z,53.66
2016-02-17T12:43:06.174Z,54.33
2016-02-17T12:44:06.176Z,53.85
2016-02-17T12:45:06.194Z,53.85
2016-02-17T12:46:06.213Z,53.47
2016-02-17T12:47:06.230Z,53.47
2016-02-17T12:48:06.249Z,54.05
2016-02-17T12:49:06.268Z,53.95
2016-02-17T12:50:06.285Z,54.05
2016-02-17T12:51:06.288Z,54.33
2016-02-17T12:52:06.323Z,54.05
2016-02-17T12:53:06.325Z,54.33
2016-02-17T12:54:06.343Z,54.52
2016-02-17T12:55:06.362Z,54.8
2016-02-17T12:56:06.395Z,55.18
2016-02-17T12:57:06.382Z,54.61